createdAt,value
2023-05-20T00:00:24.739Z,56.17
2023-05-20T00:02:51.188Z,56.59
2023-05-20T00:05:17.557Z,56.86
2023-05-20T00:07:43.985Z,57.22
2023-05-20T00:10:11.020Z,56.56
2023-05-20T00:12:38.345Z,56.08
2023-05-20T00:15:05.150Z,56.12
2023-05-20T00:17:31.526Z,55.93
2023-05-20T00:19:58.025Z,55.97
2023-05-20T00:22:24.369Z,56.24
2023-05-20T00:24:50.688Z,56.63
2023-05-20T00:27:17.011Z,56.14
2023-05-20T00:29:43.372Z,55.65
2023-05-20T00:32:09.762Z,56.56
2023-05-20T00:34:36.227Z,56.43
2023-05-20T00:37:02.577Z,56.20
2023-05-20T00:39:30.302Z,56.31
2023-05-20T00:42:00.359Z,56.17
2023-05-20T00:44:26.800Z,55.66
2023-05-20T00:46:53.278Z,55.24
2023-05-20T00:49:19.708Z,54.85
2023-05-20T00:51:46.264Z,54.82
2023-05-20T00:54:12.661Z,55.20
2023-05-20T00:56:38.997Z,56.05
2023-05-20T00:59:05.381Z,55.60
2023-05-20T01:01:31.762Z,55.53
2023-05-20T01:03:58.328Z,55.19
2023-05-20T01:06:24.766Z,54.82
2023-05-20T01:08:51.155Z,55.13
2023-05-20T01:11:22.552Z,55.65
2023-05-20T01:13:51.509Z,55.60
2023-05-20T01:16:18.118Z,56.06
2023-05-20T01:18:44.540Z,56.04
2023-05-20T01:21:11.635Z,55.94
2023-05-20T01:23:38.952Z,55.39
2023-05-20T01:26:06.249Z,55.42
2023-05-20T01:28:33.307Z,54.71
2023-05-20T01:31:00.657Z,54.65
2023-05-20T01:33:27.061Z,55.08
2023-05-20T01:35:53.442Z,55.40
2023-05-20T01:38:19.775Z,54.81
2023-05-20T01:40:46.466Z,54.50
2023-05-20T01:43:12.798Z,54.61
2023-05-20T01:45:41.308Z,55.07
2023-05-20T01:48:09.044Z,55.00
2023-05-20T01:50:35.472Z,55.27
2023-05-20T01:53:01.823Z,55.44
2023-05-20T01:55:28.226Z,55.50
2023-05-20T01:57:54.554Z,55.72
2023-05-20T02:00:20.938Z,55.07
2023-05-20T02:02:47.368Z,54.65
2023-05-20T02:05:13.729Z,54.29
2023-05-20T02:07:40.150Z,54.16
2023-05-20T02:10:06.758Z,54.00
2023-05-20T02:12:33.113Z,54.37
2023-05-20T02:14:59.454Z,54.50
2023-05-20T02:17:26.234Z,54.29
2023-05-20T02:19:52.690Z,54.20
2023-05-20T02:22:19.012Z,54.51
2023-05-20T02:24:45.910Z,55.17
2023-05-20T02:27:12.970Z,55.90
2023-05-20T02:29:39.422Z,55.10
2023-05-20T02:32:05.936Z,55.48
2023-05-20T02:34:32.381Z,54.98
2023-05-20T02:36:58.743Z,55.05
2023-05-20T02:39:25.104Z,54.58
2023-05-20T02:41:51.418Z,54.30
2023-05-20T02:44:18.078Z,54.22
2023-05-20T02:46:44.441Z,55.19
2023-05-20T02:49:10.768Z,55.97
2023-05-20T02:51:37.097Z,55.65
2023-05-20T02:54:03.725Z,55.73
2023-05-20T02:56:30.074Z,55.02
2023-05-20T02:58:56.490Z,54.38
2023-05-20T03:01:23.341Z,54.56
2023-05-20T03:03:49.724Z,55.37
2023-05-20T03:06:16.063Z,55.28
2023-05-20T03:08:42.732Z,55.26
2023-05-20T03:11:09.096Z,55.36
2023-05-20T03:13:35.572Z,55.78
2023-05-20T03:16:01.967Z,55.21
2023-05-20T03:18:28.312Z,55.25
2023-05-20T03:20:54.638Z,55.53
2023-05-20T03:23:21.447Z,55.19
2023-05-20T03:25:47.886Z,54.99
2023-05-20T03:28:14.261Z,54.71
2023-05-20T03:30:40.878Z,54.23
2023-05-20T03:33:07.548Z,54.04
2023-05-20T03:35:34.008Z,54.08
2023-05-20T03:38:01.710Z,54.29
2023-05-20T03:40:28.079Z,53.97
2023-05-20T03:42:54.555Z,54.19
2023-05-20T03:45:20.898Z,53.51
2023-05-20T03:47:47.302Z,55.26
2023-05-20T03:50:13.663Z,55.96
2023-05-20T03:52:40.877Z,56.41
2023-05-20T03:55:07.825Z,56.96
2023-05-20T03:57:34.215Z,56.44
2023-05-20T04:00:02.193Z,56.89
2023-05-20T04:02:28.632Z,57.20
2023-05-20T04:04:57.605Z,56.96
2023-05-20T04:07:23.950Z,57.48
2023-05-20T04:09:50.504Z,57.34
2023-05-20T04:12:19.278Z,56.50
2023-05-20T04:14:45.615Z,55.86
2023-05-20T04:17:11.929Z,55.42
2023-05-20T04:19:38.306Z,55.09
2023-05-20T04:22:04.749Z,54.25
2023-05-20T04:24:31.166Z,54.60
2023-05-20T04:26:57.546Z,54.51
2023-05-20T04:29:23.887Z,54.16
2023-05-20T04:31:50.266Z,54.39
2023-05-20T04:34:20.175Z,53.68
2023-05-20T04:36:47.054Z,54.16
2023-05-20T04:39:13.793Z,54.28
2023-05-20T04:41:40.286Z,53.78
2023-05-20T04:44:06.613Z,54.01
2023-05-20T04:46:33.834Z,53.83
2023-05-20T04:49:00.254Z,53.73
2023-05-20T04:51:26.598Z,53.38
2023-05-20T04:53:52.974Z,53.24
2023-05-20T04:56:19.331Z,53.60
2023-05-20T04:58:45.696Z,53.64
2023-05-20T05:01:12.035Z,53.63
2023-05-20T05:03:38.400Z,54.01
2023-05-20T05:06:04.736Z,53.97
2023-05-20T05:08:31.216Z,53.93
2023-05-20T05:10:57.535Z,53.69
2023-05-20T05:13:23.887Z,53.85
2023-05-20T05:15:57.740Z,53.15
2023-05-20T05:18:24.094Z,53.47
2023-05-20T05:20:50.456Z,53.79
2023-05-20T05:23:16.793Z,54.40
2023-05-20T05:25:43.168Z,53.68
2023-05-20T05:28:09.508Z,53.90
2023-05-20T05:30:37.454Z,53.52
2023-05-20T05:33:04.017Z,53.85
2023-05-20T05:35:30.726Z,53.47
2023-05-20T05:37:57.168Z,53.79
2023-05-20T05:40:23.531Z,52.52
2023-05-20T05:42:49.856Z,53.67
2023-05-20T05:45:16.191Z,53.40
2023-05-20T05:47:42.740Z,52.99
2023-05-20T05:50:10.143Z,53.17
2023-05-20T05:52:36.486Z,52.55
2023-05-20T05:55:03.003Z,52.75
2023-05-20T05:57:29.336Z,52.43
2023-05-20T05:59:55.668Z,53.26
2023-05-20T06:02:22.275Z,53.20
2023-05-20T06:04:48.666Z,54.31
2023-05-20T06:07:15.216Z,53.87
2023-05-20T06:09:41.568Z,53.95
2023-05-20T06:12:07.970Z,54.86
2023-05-20T06:14:34.317Z,55.52
2023-05-20T06:17:01.092Z,56.88
2023-05-20T06:19:27.509Z,57.09
2023-05-20T06:21:53.836Z,56.81
2023-05-20T06:24:21.382Z,55.85
2023-05-20T06:26:50.363Z,55.73
2023-05-20T06:29:16.693Z,54.90
2023-05-20T06:31:43.030Z,54.26
2023-05-20T06:34:09.361Z,54.26
2023-05-20T06:36:35.713Z,53.26
2023-05-20T06:39:02.123Z,53.97
2023-05-20T06:41:28.498Z,53.92
2023-05-20T06:43:54.821Z,54.59
2023-05-20T06:46:21.213Z,55.47
2023-05-20T06:48:47.566Z,55.12
2023-05-20T06:51:14.074Z,55.44
2023-05-20T06:53:40.499Z,54.58
2023-05-20T06:56:06.866Z,53.93
2023-05-20T06:58:33.210Z,53.43
2023-05-20T07:00:59.539Z,53.39
2023-05-20T07:03:25.987Z,54.40
2023-05-20T07:05:52.612Z,53.22
2023-05-20T07:08:18.937Z,55.21
2023-05-20T07:10:46.482Z,55.98
2023-05-20T07:13:12.826Z,55.87
2023-05-20T07:15:39.163Z,55.32
2023-05-20T07:18:05.820Z,53.67
2023-05-20T07:20:32.212Z,52.95
2023-05-20T07:22:58.545Z,55.19
2023-05-20T07:25:24.874Z,56.14
2023-05-20T07:27:51.278Z,55.93
2023-05-20T07:30:17.621Z,54.73
2023-05-20T07:32:44.006Z,55.78
2023-05-20T07:35:10.357Z,56.43
2023-05-20T07:37:36.721Z,54.39
2023-05-20T07:40:03.140Z,52.59
2023-05-20T07:42:29.508Z,51.99
2023-05-20T07:44:55.836Z,52.26
2023-05-20T07:47:22.182Z,55.03
2023-05-20T07:49:48.652Z,53.73
2023-05-20T07:52:15.019Z,55.11
2023-05-20T07:54:41.352Z,55.62
2023-05-20T07:57:07.769Z,55.35
2023-05-20T07:59:34.221Z,55.18
2023-05-20T08:02:00.647Z,55.30
2023-05-20T08:04:27.723Z,54.79
2023-05-20T08:06:54.916Z,55.33
2023-05-20T08:09:21.692Z,53.79
2023-05-20T08:11:48.072Z,54.17
2023-05-20T08:14:14.425Z,54.57
2023-05-20T08:16:41.798Z,54.27
2023-05-20T08:19:08.188Z,53.64
2023-05-20T08:21:35.342Z,52.63
2023-05-20T08:24:01.713Z,52.81
2023-05-20T08:26:28.052Z,52.62
2023-05-20T08:28:54.733Z,53.55
2023-05-20T08:31:21.124Z,53.75
2023-05-20T08:33:47.473Z,53.56
2023-05-20T08:36:13.826Z,52.85
2023-05-20T08:38:40.214Z,52.52
2023-05-20T08:41:06.530Z,52.49
2023-05-20T08:43:32.934Z,53.68
2023-05-20T08:45:59.333Z,51.68
2023-05-20T08:48:26.124Z,49.74
2023-05-20T08:50:52.621Z,50.09
2023-05-20T08:53:19.084Z,50.42
2023-05-20T08:55:53.489Z,52.36
2023-05-20T08:58:19.891Z,50.60
2023-05-20T09:00:46.463Z,51.14
2023-05-20T09:03:12.892Z,50.78
2023-05-20T09:05:39.327Z,50.49
2023-05-20T09:08:09.653Z,50.10
2023-05-20T09:10:36.479Z,49.83
2023-05-20T09:13:04.103Z,48.56
2023-05-20T09:15:30.832Z,48.65
2023-05-20T09:17:59.452Z,49.35
2023-05-20T09:20:26.236Z,48.78
2023-05-20T09:22:55.582Z,48.58
2023-05-20T09:25:23.993Z,48.27
2023-05-20T09:27:50.729Z,48.20
2023-05-20T09:30:20.842Z,48.90
2023-05-20T09:32:55.883Z,49.66
2023-05-20T09:35:26.073Z,49.30
2023-05-20T09:37:53.773Z,49.04
2023-05-20T09:40:21.278Z,50.76
2023-05-20T09:42:51.803Z,48.46
2023-05-20T09:45:18.450Z,45.04
2023-05-20T09:47:44.909Z,45.89
2023-05-20T09:50:11.311Z,44.19
2023-05-20T09:52:38.135Z,47.10
2023-05-20T09:55:07.424Z,49.05
2023-05-20T09:57:36.739Z,45.86
2023-05-20T10:00:06.079Z,46.79
2023-05-20T10:02:33.415Z,47.53
2023-05-20T10:04:59.792Z,46.28
2023-05-20T10:07:41.231Z,46.02
2023-05-20T10:10:08.905Z,46.20
2023-05-20T10:12:39.943Z,45.01
2023-05-20T10:15:27.258Z,45.04
2023-05-20T10:18:12.451Z,45.35
2023-05-20T10:20:47.893Z,44.48
2023-05-20T10:23:20.944Z,44.65
2023-05-20T10:25:53.613Z,43.56
2023-05-20T10:28:30.459Z,42.50
2023-05-20T10:30:57.145Z,42.26
2023-05-20T10:33:23.630Z,43.25
2023-05-20T10:35:52.853Z,42.26
2023-05-20T10:38:20.647Z,39.71
2023-05-20T10:40:47.141Z,38.91
2023-05-20T10:43:14.083Z,39.31
2023-05-20T10:45:52.935Z,40.18
2023-05-20T10:48:25.980Z,40.60
2023-05-20T10:50:56.989Z,40.06
2023-05-20T10:53:33.477Z,40.65
2023-05-20T10:56:00.635Z,39.37
2023-05-20T10:58:27.060Z,41.14
2023-05-20T11:00:54.156Z,40.75
2023-05-20T11:03:21.792Z,41.11
2023-05-20T11:05:48.458Z,41.10
2023-05-20T11:10:46.788Z,44.99
2023-05-20T11:13:13.994Z,45.34
2023-05-20T11:15:40.457Z,44.84
2023-05-20T11:18:06.865Z,42.53
2023-05-20T11:20:35.231Z,43.47
2023-05-20T11:23:02.359Z,44.19
2023-05-20T11:25:28.675Z,43.94
2023-05-20T11:27:54.984Z,42.68
2023-05-20T11:30:21.346Z,42.66
2023-05-20T11:32:57.086Z,41.86
2023-05-20T11:35:24.162Z,41.83
2023-05-20T11:37:57.759Z,43.78
2023-05-20T11:40:25.809Z,43.59
2023-05-20T11:42:57.280Z,41.96
2023-05-20T11:45:23.871Z,42.80
2023-05-20T11:48:03.044Z,42.06
2023-05-20T11:50:29.557Z,42.02
2023-05-20T11:52:59.888Z,42.60
2023-05-20T11:55:26.745Z,43.22
2023-05-20T11:57:53.074Z,41.98
2023-05-20T12:00:19.496Z,43.45
2023-05-20T12:02:46.656Z,42.83
2023-05-20T12:05:13.602Z,41.21
2023-05-20T12:07:39.948Z,40.87
2023-05-20T12:10:06.766Z,42.16
2023-05-20T12:12:33.139Z,40.78
2023-05-20T12:14:59.510Z,39.67
2023-05-20T12:17:25.905Z,40.44
2023-05-20T12:19:52.312Z,40.32
2023-05-20T12:22:18.666Z,38.35
2023-05-20T12:24:45.026Z,40.35
2023-05-20T12:27:11.355Z,40.30
2023-05-20T12:29:37.706Z,39.23
2023-05-20T12:32:04.227Z,38.18
2023-05-20T12:34:30.614Z,38.83
2023-05-20T12:36:57.094Z,38.67
2023-05-20T12:39:23.552Z,38.61
2023-05-20T12:41:49.886Z,38.12
2023-05-20T12:44:16.302Z,38.21
2023-05-20T12:46:42.757Z,38.86
2023-05-20T12:49:09.138Z,38.95
2023-05-20T12:51:35.471Z,39.01
2023-05-20T12:54:01.829Z,38.88
2023-05-20T12:56:28.188Z,38.12
2023-05-20T12:58:54.568Z,38.49
2023-05-20T13:01:20.928Z,38.77
2023-05-20T13:03:47.917Z,38.78
2023-05-20T13:06:14.300Z,38.67
2023-05-20T13:08:40.665Z,38.89
2023-05-20T13:11:06.983Z,41.91
2023-05-20T13:13:33.360Z,41.63
2023-05-20T13:15:59.703Z,42.54
2023-05-20T13:18:26.086Z,41.96
2023-05-20T13:20:52.457Z,42.36
2023-05-20T13:23:18.786Z,42.50
2023-05-20T13:25:45.164Z,43.56
2023-05-20T13:28:12.977Z,44.50
2023-05-20T13:30:39.514Z,43.89
2023-05-20T13:33:06.521Z,44.20
2023-05-20T13:35:33.439Z,42.36
2023-05-20T13:37:59.760Z,42.51
2023-05-20T13:40:26.399Z,42.39
2023-05-20T13:42:52.753Z,42.15
2023-05-20T13:45:19.121Z,43.75
2023-05-20T13:47:45.558Z,43.32
2023-05-20T13:50:11.967Z,42.88
2023-05-20T13:52:38.291Z,40.95
2023-05-20T13:55:04.788Z,39.58
2023-05-20T13:57:31.397Z,38.73
2023-05-20T13:59:57.747Z,39.19
2023-05-20T14:02:24.161Z,39.98
2023-05-20T14:04:50.525Z,39.33
2023-05-20T14:07:17.104Z,40.37
2023-05-20T14:09:43.480Z,40.34
2023-05-20T14:12:09.826Z,39.53
2023-05-20T14:14:36.228Z,38.82
2023-05-20T14:17:02.562Z,39.58
2023-05-20T14:19:31.340Z,40.34
2023-05-20T14:22:01.010Z,39.97
2023-05-20T14:24:27.420Z,40.20
2023-05-20T14:26:53.809Z,39.89
2023-05-20T14:29:20.344Z,40.83
2023-05-20T14:31:46.787Z,40.13
2023-05-20T14:34:13.200Z,40.27
2023-05-20T14:36:39.559Z,40.34
2023-05-20T14:39:05.922Z,41.24
2023-05-20T14:41:32.299Z,40.08
2023-05-20T14:43:58.732Z,40.84
2023-05-20T14:46:25.091Z,41.02
2023-05-20T14:48:51.476Z,39.92
2023-05-20T14:51:17.803Z,40.37
2023-05-20T14:53:44.109Z,41.68
2023-05-20T14:56:10.530Z,41.57
2023-05-20T14:58:36.975Z,42.26
2023-05-20T15:01:03.380Z,41.45
2023-05-20T15:03:29.891Z,40.92
2023-05-20T15:05:56.378Z,40.60
2023-05-20T15:08:22.719Z,40.25
2023-05-20T15:10:50.347Z,41.01
2023-05-20T15:13:16.737Z,41.00
2023-05-20T15:15:43.120Z,42.17
2023-05-20T15:18:09.501Z,41.98
2023-05-20T15:20:35.898Z,42.01
2023-05-20T15:23:02.245Z,43.60
2023-05-20T15:25:28.584Z,44.19
2023-05-20T15:27:54.932Z,44.89
2023-05-20T15:30:22.997Z,45.15
2023-05-20T15:32:49.515Z,44.79
2023-05-20T15:35:16.134Z,47.06
2023-05-20T15:37:42.488Z,48.42
2023-05-20T15:40:09.108Z,46.74
2023-05-20T15:42:35.818Z,45.70
2023-05-20T15:45:02.141Z,45.11
2023-05-20T15:47:28.507Z,44.73
2023-05-20T15:49:56.731Z,44.59
2023-05-20T15:52:23.079Z,45.27
2023-05-20T15:54:49.415Z,44.07
2023-05-20T15:57:15.863Z,43.44
2023-05-20T15:59:42.207Z,43.50
2023-05-20T16:02:08.577Z,43.35
2023-05-20T16:04:34.941Z,43.45
2023-05-20T16:07:01.334Z,44.94
2023-05-20T16:09:27.655Z,45.48
2023-05-20T16:11:54.047Z,46.57
2023-05-20T16:14:20.440Z,46.14
2023-05-20T16:16:46.882Z,45.47
2023-05-20T16:19:13.351Z,45.39
2023-05-20T16:21:39.707Z,46.04
2023-05-20T16:24:06.568Z,46.91
2023-05-20T16:26:32.905Z,46.57
2023-05-20T16:28:59.269Z,47.01
2023-05-20T16:31:26.513Z,48.15
2023-05-20T16:33:53.028Z,47.62
2023-05-20T16:36:19.368Z,47.04
2023-05-20T16:38:46.834Z,47.51
2023-05-20T16:41:15.393Z,48.48
2023-05-20T16:43:42.403Z,48.09
2023-05-20T16:46:08.808Z,46.05
2023-05-20T16:48:35.176Z,46.00
2023-05-20T16:51:02.342Z,46.84
2023-05-20T16:53:28.673Z,45.89
2023-05-20T16:55:55.008Z,45.74
2023-05-20T16:58:21.414Z,45.75
2023-05-20T17:00:47.775Z,47.64
2023-05-20T17:03:14.332Z,47.76
2023-05-20T17:05:40.728Z,46.48
2023-05-20T17:08:07.127Z,47.08
2023-05-20T17:10:33.739Z,48.09
2023-05-20T17:13:00.232Z,47.63
2023-05-20T17:15:26.766Z,47.37
2023-05-20T17:17:53.190Z,47.10
2023-05-20T17:20:19.766Z,48.62
2023-05-20T17:22:46.232Z,49.18
2023-05-20T17:25:12.629Z,48.30
2023-05-20T17:27:38.952Z,48.60
2023-05-20T17:30:05.614Z,49.69
2023-05-20T17:32:32.033Z,49.37
2023-05-20T17:34:58.371Z,50.62
2023-05-20T17:37:24.724Z,50.78
2023-05-20T17:39:51.037Z,50.69
2023-05-20T17:42:17.361Z,50.63
2023-05-20T17:44:43.691Z,51.80
2023-05-20T17:47:10.063Z,50.59
2023-05-20T17:49:36.381Z,50.25
2023-05-20T17:52:02.717Z,50.86
2023-05-20T17:54:29.072Z,50.54
2023-05-20T17:56:55.451Z,50.50
2023-05-20T17:59:21.861Z,50.99
2023-05-20T18:01:48.443Z,50.65
2023-05-20T18:04:14.858Z,51.42
2023-05-20T18:06:41.644Z,51.76
2023-05-20T18:09:08.046Z,51.90
2023-05-20T18:11:34.491Z,51.85
2023-05-20T18:14:01.207Z,54.21
2023-05-20T18:16:27.940Z,53.54
2023-05-20T18:18:54.617Z,52.81
2023-05-20T18:21:21.447Z,51.86
2023-05-20T18:23:47.780Z,53.28
2023-05-20T18:26:14.366Z,53.20
2023-05-20T18:28:41.187Z,53.33
2023-05-20T18:31:07.617Z,53.70
2023-05-20T18:33:34.083Z,52.45
2023-05-20T18:36:00.660Z,52.28
2023-05-20T18:38:27.187Z,52.72
2023-05-20T18:40:53.523Z,52.33
2023-05-20T18:43:19.915Z,51.62
2023-05-20T18:45:46.495Z,51.27
2023-05-20T18:48:20.225Z,51.13
2023-05-20T18:50:52.253Z,53.57
2023-05-20T18:53:19.208Z,53.80
2023-05-20T18:55:46.617Z,53.40
2023-05-20T18:58:13.234Z,52.71
2023-05-20T19:00:39.607Z,51.50
2023-05-20T19:03:06.227Z,50.75
2023-05-20T19:05:32.651Z,50.58
2023-05-20T19:07:59.013Z,50.81
2023-05-20T19:10:26.209Z,50.48
2023-05-20T19:12:53.686Z,50.35
2023-05-20T19:15:20.121Z,50.90
2023-05-20T19:17:46.600Z,50.85
2023-05-20T19:20:14.260Z,51.04
2023-05-20T19:22:40.684Z,50.45
2023-05-20T19:25:07.088Z,51.03
2023-05-20T19:27:33.418Z,51.13
2023-05-20T19:29:59.868Z,51.33
2023-05-20T19:32:26.354Z,51.03
2023-05-20T19:34:52.776Z,51.28
2023-05-20T19:37:21.056Z,51.49
2023-05-20T19:39:48.782Z,50.52
2023-05-20T19:42:15.340Z,49.98
2023-05-20T19:44:41.766Z,49.42
2023-05-20T19:47:08.100Z,49.46
2023-05-20T19:49:34.529Z,49.01
2023-05-20T19:52:00.919Z,48.62
2023-05-20T19:54:27.273Z,50.28
2023-05-20T19:56:53.644Z,51.00
2023-05-20T19:59:19.999Z,49.96
2023-05-20T20:01:46.424Z,48.55
2023-05-20T20:04:13.291Z,47.94
2023-05-20T20:06:39.745Z,47.95
2023-05-20T20:09:06.102Z,47.23
2023-05-20T20:11:32.490Z,47.04
2023-05-20T20:13:58.915Z,46.60
2023-05-20T20:16:26.788Z,46.38
2023-05-20T20:18:53.255Z,46.72
2023-05-20T20:21:20.057Z,46.19
2023-05-20T20:23:46.389Z,47.09
2023-05-20T20:26:13.774Z,47.43
2023-05-20T20:28:40.290Z,48.18
2023-05-20T20:31:06.605Z,49.03
2023-05-20T20:33:32.984Z,48.89
2023-05-20T20:35:59.302Z,48.54
2023-05-20T20:38:26.292Z,47.68
2023-05-20T20:40:53.569Z,47.38
2023-05-20T20:43:21.476Z,46.84
2023-05-20T20:45:50.557Z,47.34
2023-05-20T20:48:19.961Z,47.08
2023-05-20T20:50:47.885Z,47.44
2023-05-20T20:53:16.285Z,47.57
2023-05-20T20:55:43.309Z,47.98
2023-05-20T20:58:10.320Z,47.95
2023-05-20T21:00:37.018Z,47.54
2023-05-20T21:03:04.272Z,47.01
2023-05-20T21:05:30.780Z,46.37
2023-05-20T21:08:03.300Z,46.99
2023-05-20T21:10:30.390Z,47.13
2023-05-20T21:12:57.211Z,47.16
2023-05-20T21:15:23.797Z,48.55
2023-05-20T21:17:50.634Z,50.08
2023-05-20T21:20:19.475Z,50.41
2023-05-20T21:22:47.407Z,49.89
2023-05-20T21:25:13.836Z,49.80
2023-05-20T21:27:41.346Z,49.66
2023-05-20T21:30:08.727Z,49.17
2023-05-20T21:32:35.078Z,49.44
2023-05-20T21:35:01.409Z,48.76
2023-05-20T21:37:27.742Z,47.84
2023-05-20T21:39:54.185Z,48.10
2023-05-20T21:42:20.560Z,47.80
2023-05-20T21:44:46.875Z,47.87
2023-05-20T21:47:13.250Z,47.05
2023-05-20T21:49:39.617Z,47.46
2023-05-20T21:52:06.053Z,47.19
2023-05-20T21:54:32.389Z,47.38
2023-05-20T21:56:58.721Z,46.91
2023-05-20T21:59:25.055Z,46.96
2023-05-20T22:01:51.452Z,47.24
2023-05-20T22:04:18.862Z,47.21
2023-05-20T22:06:45.210Z,47.88
2023-05-20T22:09:11.708Z,48.43
2023-05-20T22:11:38.033Z,47.97
2023-05-20T22:14:04.865Z,47.67
2023-05-20T22:16:31.250Z,48.17
2023-05-20T22:18:57.782Z,48.91
2023-05-20T22:21:24.530Z,50.39
2023-05-20T22:23:50.914Z,49.74
2023-05-20T22:26:19.590Z,49.21
2023-05-20T22:28:46.515Z,49.30
2023-05-20T22:31:12.912Z,48.26
2023-05-20T22:33:41.301Z,48.17
2023-05-20T22:36:08.776Z,48.19
2023-05-20T22:38:35.870Z,48.38
2023-05-20T22:41:02.489Z,47.70
2023-05-20T22:43:28.909Z,47.16
2023-05-20T22:45:55.423Z,47.38
2023-05-20T22:48:23.076Z,48.12
2023-05-20T22:50:49.980Z,48.99
2023-05-20T22:53:16.513Z,48.73
2023-05-20T22:55:43.447Z,48.75
2023-05-20T22:58:09.781Z,48.81
2023-05-20T23:00:36.149Z,48.90
2023-05-20T23:03:02.566Z,48.82
2023-05-20T23:05:30.080Z,48.97
2023-05-20T23:07:56.803Z,49.18
2023-05-20T23:10:24.410Z,49.55
2023-05-20T23:12:51.046Z,49.36
2023-05-20T23:15:17.536Z,49.16
2023-05-20T23:17:43.952Z,49.60
2023-05-20T23:20:14.465Z,50.18
2023-05-20T23:22:40.899Z,50.23
2023-05-20T23:25:07.363Z,50.09
2023-05-20T23:27:33.782Z,50.38
2023-05-20T23:30:00.207Z,50.26
2023-05-20T23:32:27.009Z,49.92
2023-05-20T23:34:53.456Z,49.28
2023-05-20T23:37:22.432Z,49.21
2023-05-20T23:39:48.763Z,49.60
2023-05-20T23:42:15.235Z,49.54
2023-05-20T23:44:41.612Z,49.36
2023-05-20T23:47:07.993Z,49.71
2023-05-20T23:49:34.392Z,49.90
2023-05-20T23:52:01.458Z,50.05
2023-05-20T23:54:27.786Z,50.56
2023-05-20T23:56:55.372Z,50.68
2023-05-20T23:59:21.744Z,50.18
